sensor_id;sensor_type;location;lat;lon;timestamp;pressure;altitude;pressure_sealevel;temperature;humidity
54248;BME280;40161;39.768;2.722;2023-01-31T00:01:19;102393.41;;;4.37;97.86
54248;BME280;40161;39.768;2.722;2023-01-31T00:03:45;102371.63;;;4.03;96.77
54248;BME280;40161;39.768;2.722;2023-01-31T00:06:18;102408.06;;;3.92;97.83
54248;BME280;40161;39.768;2.722;2023-01-31T00:08:45;102408.06;;;3.92;99.33
54248;BME280;40161;39.768;2.722;2023-01-31T00:11:11;102379.63;;;3.79;100.00
54248;BME280;40161;39.768;2.722;2023-01-31T00:13:37;102351.00;;;3.97;100.00
54248;BME280;40161;39.768;2.722;2023-01-31T00:16:05;102390.91;;;4.01;98.75
54248;BME280;40161;39.768;2.722;2023-01-31T00:18:31;102389.03;;;3.97;99.93
54248;BME280;40161;39.768;2.722;2023-01-31T00:20:57;102373.22;;;4.04;100.00
54248;BME280;40161;39.768;2.722;2023-01-31T00:23:22;102386.13;;;4.27;100.00
54248;BME280;40161;39.768;2.722;2023-01-31T00:25:48;102391.38;;;4.14;98.44
54248;BME280;40161;39.768;2.722;2023-01-31T00:28:13;102361.44;;;3.79;98.45
54248;BME280;40161;39.768;2.722;2023-01-31T00:30:39;102380.38;;;4.34;100.00
54248;BME280;40161;39.768;2.722;2023-01-31T00:33:04;102365.84;;;4.49;100.00
54248;BME280;40161;39.768;2.722;2023-01-31T00:35:30;102348.50;;;4.40;98.62
54248;BME280;40161;39.768;2.722;2023-01-31T00:37:56;102385.56;;;4.65;97.75
54248;BME280;40161;39.768;2.722;2023-01-31T00:40:21;102384.97;;;4.68;96.76
54248;BME280;40161;39.768;2.722;2023-01-31T00:42:47;102390.50;;;4.23;95.12
54248;BME280;40161;39.768;2.722;2023-01-31T00:45:12;102380.91;;;3.92;96.47
54248;BME280;40161;39.768;2.722;2023-01-31T00:47:38;102379.84;;;3.88;98.33
54248;BME280;40161;39.768;2.722;2023-01-31T00:50:04;102375.69;;;4.00;99.49
54248;BME280;40161;39.768;2.722;2023-01-31T00:52:30;102377.91;;;3.93;99.71
54248;BME280;40161;39.768;2.722;2023-01-31T00:54:56;102375.81;;;3.80;100.00
54248;BME280;40161;39.768;2.722;2023-01-31T00:57:21;102366.19;;;4.03;100.00
54248;BME280;40161;39.768;2.722;2023-01-31T00:59:47;102334.34;;;4.09;100.00
54248;BME280;40161;39.768;2.722;2023-01-31T01:02:12;102350.88;;;4.17;99.53
54248;BME280;40161;39.768;2.722;2023-01-31T01:04:38;102326.75;;;3.61;98.15
54248;BME280;40161;39.768;2.722;2023-01-31T01:07:04;102372.25;;;3.85;99.88
54248;BME280;40161;39.768;2.722;2023-01-31T01:09:29;102374.63;;;3.96;100.00
54248;BME280;40161;39.768;2.722;2023-01-31T01:11:55;102376.50;;;4.06;100.00
54248;BME280;40161;39.768;2.722;2023-01-31T01:14:21;102326.25;;;4.03;100.00
54248;BME280;40161;39.768;2.722;2023-01-31T01:16:46;102381.09;;;4.45;98.75
54248;BME280;40161;39.768;2.722;2023-01-31T01:19:15;102383.25;;;4.09;95.77
54248;BME280;40161;39.768;2.722;2023-01-31T01:21:41;102380.88;;;3.97;98.10
54248;BME280;40161;39.768;2.722;2023-01-31T01:24:15;102381.59;;;3.63;97.65
54248;BME280;40161;39.768;2.722;2023-01-31T01:26:41;102384.56;;;3.67;99.00
54248;BME280;40161;39.768;2.722;2023-01-31T01:29:06;102353.78;;;3.81;100.00
54248;BME280;40161;39.768;2.722;2023-01-31T01:31:32;102376.84;;;3.89;98.80
54248;BME280;40161;39.768;2.722;2023-01-31T01:34:04;102376.88;;;3.84;99.51
54248;BME280;40161;39.768;2.722;2023-01-31T01:36:32;102378.09;;;4.07;99.39
54248;BME280;40161;39.768;2.722;2023-01-31T01:38:58;102382.94;;;4.15;99.08
54248;BME280;40161;39.768;2.722;2023-01-31T01:41:24;102371.50;;;4.18;97.63
54248;BME280;40161;39.768;2.722;2023-01-31T01:43:58;102320.81;;;3.98;97.90
54248;BME280;40161;39.768;2.722;2023-01-31T01:46:25;102323.09;;;3.86;97.22
54248;BME280;40161;39.768;2.722;2023-01-31T01:48:55;102364.25;;;3.54;96.39
54248;BME280;40161;39.768;2.722;2023-01-31T01:51:22;102369.53;;;3.90;99.19
54248;BME280;40161;39.768;2.722;2023-01-31T01:53:52;102385.31;;;3.83;97.99
54248;BME280;40161;39.768;2.722;2023-01-31T01:56:33;102363.03;;;3.80;99.01
54248;BME280;40161;39.768;2.722;2023-01-31T01:59:09;102375.66;;;3.56;98.87
54248;BME280;40161;39.768;2.722;2023-01-31T02:01:37;102375.00;;;3.74;100.00
54248;BME280;40161;39.768;2.722;2023-01-31T02:04:06;102376.59;;;3.86;100.00
54248;BME280;40161;39.768;2.722;2023-01-31T02:06:35;102379.69;;;3.69;100.00
54248;BME280;40161;39.768;2.722;2023-01-31T02:09:02;102372.75;;;3.92;100.00
54248;BME280;40161;39.768;2.722;2023-01-31T02:11:30;102358.78;;;3.64;98.11
54248;BME280;40161;39.768;2.722;2023-01-31T02:14:01;102379.75;;;4.03;99.23
54248;BME280;40161;39.768;2.722;2023-01-31T02:16:27;102380.19;;;4.20;97.43
54248;BME280;40161;39.768;2.722;2023-01-31T02:18:53;102382.13;;;4.15;96.74
54248;BME280;40161;39.768;2.722;2023-01-31T02:21:51;102368.47;;;3.86;96.47
54248;BME280;40161;39.768;2.722;2023-01-31T02:24:51;102372.13;;;4.05;98.04
54248;BME280;40161;39.768;2.722;2023-01-31T02:41:12;102312.84;;;3.18;100.00
54248;BME280;40161;39.768;2.722;2023-01-31T02:43:59;102340.56;;;3.70;100.00
54248;BME280;40161;39.768;2.722;2023-01-31T02:47:09;102331.94;;;3.57;100.00
54248;BME280;40161;39.768;2.722;2023-01-31T02:52:19;102328.03;;;3.24;98.58
54248;BME280;40161;39.768;2.722;2023-01-31T02:58:06;102301.34;;;3.37;100.00
54248;BME280;40161;39.768;2.722;2023-01-31T03:00:35;102323.09;;;3.81;100.00
54248;BME280;40161;39.768;2.722;2023-01-31T03:03:10;102319.44;;;3.56;96.76
54248;BME280;40161;39.768;2.722;2023-01-31T03:05:37;102294.09;;;3.22;99.45
54248;BME280;40161;39.768;2.722;2023-01-31T03:08:04;102299.03;;;3.09;100.00
54248;BME280;40161;39.768;2.722;2023-01-31T03:10:53;102318.34;;;3.57;100.00
54248;BME280;40161;39.768;2.722;2023-01-31T03:16:26;102300.38;;;3.12;100.00
54248;BME280;40161;39.768;2.722;2023-01-31T03:22:24;102326.13;;;3.25;98.77
54248;BME280;40161;39.768;2.722;2023-01-31T03:24:53;102322.09;;;3.17;100.00
54248;BME280;40161;39.768;2.722;2023-01-31T03:27:19;102306.31;;;3.24;100.00
54248;BME280;40161;39.768;2.722;2023-01-31T03:29:46;102315.13;;;3.50;100.00
54248;BME280;40161;39.768;2.722;2023-01-31T03:32:29;102307.66;;;3.27;99.41
54248;BME280;40161;39.768;2.722;2023-01-31T03:34:57;102301.78;;;3.04;100.00
54248;BME280;40161;39.768;2.722;2023-01-31T03:42:59;102323.88;;;3.37;100.00
54248;BME280;40161;39.768;2.722;2023-01-31T03:45:48;102317.00;;;3.60;100.00
54248;BME280;40161;39.768;2.722;2023-01-31T03:48:16;102257.47;;;3.24;99.31
54248;BME280;40161;39.768;2.722;2023-01-31T03:51:10;102300.66;;;3.11;98.95
54248;BME280;40161;39.768;2.722;2023-01-31T03:53:51;102309.63;;;3.11;100.00
54248;BME280;40161;39.768;2.722;2023-01-31T03:56:26;102298.78;;;3.06;100.00
54248;BME280;40161;39.768;2.722;2023-01-31T03:59:03;102295.22;;;3.16;100.00
54248;BME280;40161;39.768;2.722;2023-01-31T04:01:33;102287.09;;;3.11;100.00
54248;BME280;40161;39.768;2.722;2023-01-31T04:04:21;102286.69;;;3.43;100.00
54248;BME280;40161;39.768;2.722;2023-01-31T04:06:48;102297.06;;;3.75;100.00
54248;BME280;40161;39.768;2.722;2023-01-31T04:09:15;102282.25;;;3.57;99.53
54248;BME280;40161;39.768;2.722;2023-01-31T04:11:41;102290.94;;;3.54;98.64
54248;BME280;40161;39.768;2.722;2023-01-31T04:14:07;102294.69;;;3.14;98.40
54248;BME280;40161;39.768;2.722;2023-01-31T04:16:34;102280.03;;;3.15;100.00
54248;BME280;40161;39.768;2.722;2023-01-31T04:18:59;102294.88;;;3.32;100.00
54248;BME280;40161;39.768;2.722;2023-01-31T04:21:25;102293.84;;;3.13;99.55
54248;BME280;40161;39.768;2.722;2023-01-31T04:23:50;102302.06;;;3.03;100.00
54248;BME280;40161;39.768;2.722;2023-01-31T04:26:16;102300.50;;;3.46;100.00
54248;BME280;40161;39.768;2.722;2023-01-31T04:28:42;102289.41;;;3.43;98.30
54248;BME280;40161;39.768;2.722;2023-01-31T04:31:07;102295.94;;;3.37;98.42
54248;BME280;40161;39.768;2.722;2023-01-31T04:33:33;102283.66;;;3.54;97.45
54248;BME280;40161;39.768;2.722;2023-01-31T04:35:58;102262.84;;;3.35;97.13
54248;BME280;40161;39.768;2.722;2023-01-31T04:38:24;102259.84;;;3.36;97.41
54248;BME280;40161;39.768;2.722;2023-01-31T04:40:49;102292.84;;;3.59;97.22
54248;BME280;40161;39.768;2.722;2023-01-31T04:43:15;102278.88;;;3.26;96.70
54248;BME280;40161;39.768;2.722;2023-01-31T04:45:41;102184.00;;;2.56;97.93
54248;BME280;40161;39.768;2.722;2023-01-31T04:48:07;102277.72;;;3.42;100.00
54248;BME280;40161;39.768;2.722;2023-01-31T04:50:33;102267.78;;;3.22;98.57
54248;BME280;40161;39.768;2.722;2023-01-31T04:52:59;102273.22;;;3.22;98.92
54248;BME280;40161;39.768;2.722;2023-01-31T04:55:25;102265.06;;;3.27;99.98
54248;BME280;40161;39.768;2.722;2023-01-31T04:57:51;102270.88;;;3.00;98.61
54248;BME280;40161;39.768;2.722;2023-01-31T05:00:17;102262.13;;;3.14;100.00
54248;BME280;40161;39.768;2.722;2023-01-31T05:02:44;102266.41;;;3.25;100.00
54248;BME280;40161;39.768;2.722;2023-01-31T05:05:09;102249.63;;;3.13;100.00
54248;BME280;40161;39.768;2.722;2023-01-31T05:07:37;102249.09;;;3.21;100.00
54248;BME280;40161;39.768;2.722;2023-01-31T05:10:03;102262.53;;;3.41;100.00
54248;BME280;40161;39.768;2.722;2023-01-31T05:12:29;102258.91;;;3.56;99.49
54248;BME280;40161;39.768;2.722;2023-01-31T05:14:55;102257.44;;;3.29;97.68
54248;BME280;40161;39.768;2.722;2023-01-31T05:17:22;102259.06;;;3.30;99.67
54248;BME280;40161;39.768;2.722;2023-01-31T05:19:55;102268.78;;;3.37;98.99
54248;BME280;40161;39.768;2.722;2023-01-31T05:22:21;102253.84;;;3.39;99.06
54248;BME280;40161;39.768;2.722;2023-01-31T05:24:47;102269.50;;;3.03;97.76
54248;BME280;40161;39.768;2.722;2023-01-31T05:27:14;102257.31;;;3.00;100.00
54248;BME280;40161;39.768;2.722;2023-01-31T05:29:39;102281.94;;;3.14;100.00
54248;BME280;40161;39.768;2.722;2023-01-31T05:32:05;102270.56;;;3.02;100.00
54248;BME280;40161;39.768;2.722;2023-01-31T05:34:31;102276.25;;;3.11;100.00
54248;BME280;40161;39.768;2.722;2023-01-31T05:36:58;102285.69;;;3.23;100.00
54248;BME280;40161;39.768;2.722;2023-01-31T05:39:23;102283.84;;;3.14;99.69
54248;BME280;40161;39.768;2.722;2023-01-31T05:41:49;102292.75;;;3.24;100.00
54248;BME280;40161;39.768;2.722;2023-01-31T05:44:15;102288.44;;;3.18;99.79
54248;BME280;40161;39.768;2.722;2023-01-31T05:46:41;102241.84;;;3.01;100.00
54248;BME280;40161;39.768;2.722;2023-01-31T05:49:07;102290.50;;;3.37;100.00
54248;BME280;40161;39.768;2.722;2023-01-31T05:51:33;102291.22;;;2.98;98.25
54248;BME280;40161;39.768;2.722;2023-01-31T05:53:59;102300.59;;;3.26;100.00
54248;BME280;40161;39.768;2.722;2023-01-31T05:56:24;102294.34;;;3.30;100.00
54248;BME280;40161;39.768;2.722;2023-01-31T05:58:50;102302.94;;;3.48;99.45
54248;BME280;40161;39.768;2.722;2023-01-31T06:01:21;102312.91;;;3.57;98.94
54248;BME280;40161;39.768;2.722;2023-01-31T06:03:47;102328.78;;;3.35;97.07
54248;BME280;40161;39.768;2.722;2023-01-31T06:06:14;102308.47;;;3.27;99.63
54248;BME280;40161;39.768;2.722;2023-01-31T06:08:39;102329.66;;;3.20;98.20
54248;BME280;40161;39.768;2.722;2023-01-31T06:11:07;102322.13;;;3.07;100.00
54248;BME280;40161;39.768;2.722;2023-01-31T06:13:36;102335.34;;;3.19;100.00
54248;BME280;40161;39.768;2.722;2023-01-31T06:16:02;102332.38;;;3.20;100.00
54248;BME280;40161;39.768;2.722;2023-01-31T06:18:28;102323.91;;;3.32;100.00
54248;BME280;40161;39.768;2.722;2023-01-31T06:20:53;102317.09;;;3.40;100.00
54248;BME280;40161;39.768;2.722;2023-01-31T06:23:19;102341.16;;;3.56;100.00
54248;BME280;40161;39.768;2.722;2023-01-31T06:25:50;102336.28;;;3.53;100.00
54248;BME280;40161;39.768;2.722;2023-01-31T06:28:16;102333.81;;;3.62;100.00
54248;BME280;40161;39.768;2.722;2023-01-31T06:30:43;102335.97;;;3.65;100.00
54248;BME280;40161;39.768;2.722;2023-01-31T06:33:10;102317.22;;;3.69;100.00
54248;BME280;40161;39.768;2.722;2023-01-31T06:35:37;102326.69;;;3.76;100.00
54248;BME280;40161;39.768;2.722;2023-01-31T06:38:03;102332.66;;;3.73;100.00
54248;BME280;40161;39.768;2.722;2023-01-31T06:40:29;102324.56;;;3.63;100.00
54248;BME280;40161;39.768;2.722;2023-01-31T06:42:56;102324.63;;;3.53;100.00
54248;BME280;40161;39.768;2.722;2023-01-31T06:45:21;102318.59;;;3.61;100.00
54248;BME280;40161;39.768;2.722;2023-01-31T06:47:47;102323.22;;;3.61;100.00
54248;BME280;40161;39.768;2.722;2023-01-31T06:50:13;102325.97;;;3.55;100.00
54248;BME280;40161;39.768;2.722;2023-01-31T06:52:39;102316.66;;;3.72;100.00
54248;BME280;40161;39.768;2.722;2023-01-31T06:55:05;102323.59;;;3.88;100.00
54248;BME280;40161;39.768;2.722;2023-01-31T06:57:31;102306.25;;;3.89;100.00
54248;BME280;40161;39.768;2.722;2023-01-31T06:59:57;102314.16;;;3.80;100.00
54248;BME280;40161;39.768;2.722;2023-01-31T07:02:22;102313.06;;;3.81;100.00
54248;BME280;40161;39.768;2.722;2023-01-31T07:04:48;102320.09;;;3.88;100.00
54248;BME280;40161;39.768;2.722;2023-01-31T07:07:14;102313.34;;;3.80;100.00
54248;BME280;40161;39.768;2.722;2023-01-31T07:09:39;102308.03;;;3.60;100.00
54248;BME280;40161;39.768;2.722;2023-01-31T07:12:05;102306.44;;;3.53;100.00
54248;BME280;40161;39.768;2.722;2023-01-31T07:14:31;102309.84;;;3.74;100.00
54248;BME280;40161;39.768;2.722;2023-01-31T07:16:56;102311.34;;;3.96;100.00
54248;BME280;40161;39.768;2.722;2023-01-31T07:19:22;102288.19;;;3.64;100.00
54248;BME280;40161;39.768;2.722;2023-01-31T07:21:47;102302.00;;;3.73;100.00
54248;BME280;40161;39.768;2.722;2023-01-31T07:24:14;102316.25;;;3.94;100.00
54248;BME280;40161;39.768;2.722;2023-01-31T07:26:40;102303.19;;;3.96;100.00
54248;BME280;40161;39.768;2.722;2023-01-31T07:29:06;102317.38;;;4.22;100.00
54248;BME280;40161;39.768;2.722;2023-01-31T07:31:32;102317.97;;;4.19;100.00
54248;BME280;40161;39.768;2.722;2023-01-31T07:33:58;102326.28;;;4.33;100.00
54248;BME280;40161;39.768;2.722;2023-01-31T07:36:24;102320.41;;;4.20;100.00
54248;BME280;40161;39.768;2.722;2023-01-31T07:38:55;102297.34;;;4.13;100.00
54248;BME280;40161;39.768;2.722;2023-01-31T07:41:22;102330.13;;;4.26;100.00
54248;BME280;40161;39.768;2.722;2023-01-31T07:43:48;102339.84;;;4.33;100.00
54248;BME280;40161;39.768;2.722;2023-01-31T07:46:13;102339.91;;;4.27;100.00
54248;BME280;40161;39.768;2.722;2023-01-31T07:48:40;102347.34;;;4.17;100.00
54248;BME280;40161;39.768;2.722;2023-01-31T07:51:07;102350.94;;;4.07;100.00
54248;BME280;40161;39.768;2.722;2023-01-31T07:53:35;102347.50;;;3.91;100.00
54248;BME280;40161;39.768;2.722;2023-01-31T07:56:20;102353.16;;;4.00;100.00
54248;BME280;40161;39.768;2.722;2023-01-31T07:58:47;102356.13;;;3.98;100.00
54248;BME280;40161;39.768;2.722;2023-01-31T08:01:18;102357.06;;;4.23;100.00
54248;BME280;40161;39.768;2.722;2023-01-31T08:04:04;102371.09;;;4.35;100.00
54248;BME280;40161;39.768;2.722;2023-01-31T08:06:30;102356.72;;;4.29;100.00
54248;BME280;40161;39.768;2.722;2023-01-31T08:08:57;102373.19;;;4.48;100.00
54248;BME280;40161;39.768;2.722;2023-01-31T08:11:23;102375.84;;;4.53;100.00
54248;BME280;40161;39.768;2.722;2023-01-31T08:13:48;102377.00;;;4.47;100.00
54248;BME280;40161;39.768;2.722;2023-01-31T08:16:14;102354.13;;;4.14;100.00
54248;BME280;40161;39.768;2.722;2023-01-31T08:18:40;102395.75;;;4.44;100.00
54248;BME280;40161;39.768;2.722;2023-01-31T08:21:09;102377.66;;;4.34;100.00
54248;BME280;40161;39.768;2.722;2023-01-31T08:23:35;102390.06;;;4.45;100.00
54248;BME280;40161;39.768;2.722;2023-01-31T08:26:19;102387.25;;;4.56;100.00
54248;BME280;40161;39.768;2.722;2023-01-31T08:28:46;102373.94;;;4.54;100.00
54248;BME280;40161;39.768;2.722;2023-01-31T08:31:18;102393.47;;;4.61;100.00
54248;BME280;40161;39.768;2.722;2023-01-31T08:33:44;102348.22;;;4.41;100.00
54248;BME280;40161;39.768;2.722;2023-01-31T08:36:18;102409.59;;;4.82;100.00
54248;BME280;40161;39.768;2.722;2023-01-31T08:38:44;102409.00;;;4.56;100.00
54248;BME280;40161;39.768;2.722;2023-01-31T08:41:12;102427.97;;;4.66;100.00
54248;BME280;40161;39.768;2.722;2023-01-31T08:43:40;102430.47;;;4.57;100.00
54248;BME280;40161;39.768;2.722;2023-01-31T08:46:07;102428.81;;;4.61;100.00
54248;BME280;40161;39.768;2.722;2023-01-31T08:48:37;102396.88;;;4.43;100.00
54248;BME280;40161;39.768;2.722;2023-01-31T08:51:09;102436.84;;;4.76;100.00
54248;BME280;40161;39.768;2.722;2023-01-31T08:53:43;102371.59;;;4.42;100.00
54248;BME280;40161;39.768;2.722;2023-01-31T08:56:11;102442.94;;;4.97;100.00
54248;BME280;40161;39.768;2.722;2023-01-31T08:58:42;102444.19;;;5.10;100.00
54248;BME280;40161;39.768;2.722;2023-01-31T09:01:12;102452.50;;;5.19;100.00
54248;BME280;40161;39.768;2.722;2023-01-31T09:03:38;102417.28;;;5.04;100.00
54248;BME280;40161;39.768;2.722;2023-01-31T09:06:09;102453.22;;;5.30;100.00
54248;BME280;40161;39.768;2.722;2023-01-31T09:08:35;102454.53;;;5.37;100.00
54248;BME280;40161;39.768;2.722;2023-01-31T09:11:05;102456.38;;;5.42;100.00
54248;BME280;40161;39.768;2.722;2023-01-31T09:13:34;102454.66;;;5.51;100.00
54248;BME280;40161;39.768;2.722;2023-01-31T09:16:07;102454.31;;;5.58;100.00
54248;BME280;40161;39.768;2.722;2023-01-31T09:18:35;102428.50;;;5.50;100.00
54248;BME280;40161;39.768;2.722;2023-01-31T09:21:14;102420.06;;;5.52;100.00
54248;BME280;40161;39.768;2.722;2023-01-31T09:23:40;102456.94;;;5.87;100.00
54248;BME280;40161;39.768;2.722;2023-01-31T09:26:07;102422.69;;;5.81;100.00
54248;BME280;40161;39.768;2.722;2023-01-31T09:28:33;102462.16;;;6.07;100.00
54248;BME280;40161;39.768;2.722;2023-01-31T09:33:30;102445.53;;;6.28;100.00
54248;BME280;40161;39.768;2.722;2023-01-31T09:35:58;102451.63;;;6.38;100.00
54248;BME280;40161;39.768;2.722;2023-01-31T09:38:26;102460.41;;;6.54;100.00
54248;BME280;40161;39.768;2.722;2023-01-31T09:40:55;102464.88;;;6.64;100.00
54248;BME280;40161;39.768;2.722;2023-01-31T09:43:27;102468.75;;;6.77;100.00
54248;BME280;40161;39.768;2.722;2023-01-31T09:45:57;102448.84;;;6.76;100.00
54248;BME280;40161;39.768;2.722;2023-01-31T09:48:28;102448.38;;;6.88;100.00
54248;BME280;40161;39.768;2.722;2023-01-31T09:50:57;102466.53;;;7.11;100.00
54248;BME280;40161;39.768;2.722;2023-01-31T09:53:30;102443.16;;;7.05;100.00
54248;BME280;40161;39.768;2.722;2023-01-31T09:56:18;102455.03;;;7.28;100.00
54248;BME280;40161;39.768;2.722;2023-01-31T09:59:06;102474.91;;;7.48;100.00
54248;BME280;40161;39.768;2.722;2023-01-31T10:02:05;102476.84;;;7.61;100.00
54248;BME280;40161;39.768;2.722;2023-01-31T10:08:24;102469.53;;;7.84;100.00
54248;BME280;40161;39.768;2.722;2023-01-31T10:13:34;102466.28;;;7.96;100.00
54248;BME280;40161;39.768;2.722;2023-01-31T10:16:32;102459.19;;;7.95;100.00
54248;BME280;40161;39.768;2.722;2023-01-31T10:19:07;102477.41;;;8.13;100.00
54248;BME280;40161;39.768;2.722;2023-01-31T10:21:50;102480.31;;;8.30;100.00
54248;BME280;40161;39.768;2.722;2023-01-31T10:24:29;102462.91;;;8.26;100.00
54248;BME280;40161;39.768;2.722;2023-01-31T10:27:00;102467.84;;;8.38;100.00
54248;BME280;40161;39.768;2.722;2023-01-31T10:29:35;102493.31;;;8.61;100.00
54248;BME280;40161;39.768;2.722;2023-01-31T10:32:17;102500.16;;;8.72;99.54
54248;BME280;40161;39.768;2.722;2023-01-31T10:35:12;102474.59;;;8.77;98.77
54248;BME280;40161;39.768;2.722;2023-01-31T10:37:42;102493.88;;;8.94;99.19
54248;BME280;40161;39.768;2.722;2023-01-31T10:40:33;102482.03;;;9.08;98.66
54248;BME280;40161;39.768;2.722;2023-01-31T10:43:08;102477.88;;;9.10;98.80
54248;BME280;40161;39.768;2.722;2023-01-31T10:45:37;102466.75;;;9.07;98.15
54248;BME280;40161;39.768;2.722;2023-01-31T10:48:23;102465.84;;;9.20;96.85
54248;BME280;40161;39.768;2.722;2023-01-31T10:54:10;102436.59;;;9.29;96.00
54248;BME280;40161;39.768;2.722;2023-01-31T10:56:45;102460.84;;;9.53;94.84
54248;BME280;40161;39.768;2.722;2023-01-31T10:59:32;102472.53;;;9.67;94.38
54248;BME280;40161;39.768;2.722;2023-01-31T11:02:02;102350.38;;;8.95;94.04
54248;BME280;40161;39.768;2.722;2023-01-31T11:04:39;102451.22;;;9.64;92.05
54248;BME280;40161;39.768;2.722;2023-01-31T11:07:05;102466.06;;;9.72;92.27
54248;BME280;40161;39.768;2.722;2023-01-31T11:09:35;102478.84;;;9.85;92.46
54248;BME280;40161;39.768;2.722;2023-01-31T11:12:04;102467.09;;;9.93;91.28
54248;BME280;40161;39.768;2.722;2023-01-31T11:14:30;102470.50;;;9.99;91.38
54248;BME280;40161;39.768;2.722;2023-01-31T11:17:17;102456.47;;;10.01;90.14
54248;BME280;40161;39.768;2.722;2023-01-31T11:19:53;102449.69;;;10.07;90.20
54248;BME280;40161;39.768;2.722;2023-01-31T11:22:29;102470.19;;;10.18;90.05
54248;BME280;40161;39.768;2.722;2023-01-31T11:24:57;102432.75;;;9.96;88.44
54248;BME280;40161;39.768;2.722;2023-01-31T11:27:37;102362.66;;;9.55;87.80
54248;BME280;40161;39.768;2.722;2023-01-31T11:30:04;102332.81;;;9.45;88.31
54248;BME280;40161;39.768;2.722;2023-01-31T11:32:34;102428.06;;;10.14;87.77
54248;BME280;40161;39.768;2.722;2023-01-31T11:35:20;102443.94;;;10.34;87.00
54248;BME280;40161;39.768;2.722;2023-01-31T11:37:55;102411.94;;;10.21;85.12
54248;BME280;40161;39.768;2.722;2023-01-31T11:40:30;102418.75;;;10.32;84.41
54248;BME280;40161;39.768;2.722;2023-01-31T11:42:57;102461.03;;;10.66;82.12
54248;BME280;40161;39.768;2.722;2023-01-31T11:45:25;102446.81;;;10.73;82.03
54248;BME280;40161;39.768;2.722;2023-01-31T11:47:54;102440.69;;;10.76;81.47
54248;BME280;40161;39.768;2.722;2023-01-31T11:50:30;102441.63;;;10.80;79.92
54248;BME280;40161;39.768;2.722;2023-01-31T11:53:02;102451.97;;;10.91;79.56
54248;BME280;40161;39.768;2.722;2023-01-31T11:55:36;102442.09;;;10.90;78.23
54248;BME280;40161;39.768;2.722;2023-01-31T11:58:12;102429.34;;;10.86;78.07
54248;BME280;40161;39.768;2.722;2023-01-31T12:00:51;102446.47;;;10.91;77.06
54248;BME280;40161;39.768;2.722;2023-01-31T12:03:18;102433.38;;;10.97;77.16
54248;BME280;40161;39.768;2.722;2023-01-31T12:05:47;102392.84;;;10.77;76.84
54248;BME280;40161;39.768;2.722;2023-01-31T12:10:55;102410.94;;;10.95;75.59
54248;BME280;40161;39.768;2.722;2023-01-31T12:13:22;102381.22;;;10.80;75.91
54248;BME280;40161;39.768;2.722;2023-01-31T12:16:02;102426.06;;;11.10;75.02
54248;BME280;40161;39.768;2.722;2023-01-31T12:26:56;102405.03;;;11.14;73.61
54248;BME280;40161;39.768;2.722;2023-01-31T12:40:36;102399.66;;;11.26;71.84
54248;BME280;40161;39.768;2.722;2023-01-31T12:43:22;102399.81;;;11.21;71.02
54248;BME280;40161;39.768;2.722;2023-01-31T12:51:38;102388.53;;;11.23;69.49
54248;BME280;40161;39.768;2.722;2023-01-31T12:54:30;102397.34;;;11.37;69.81
54248;BME280;40161;39.768;2.722;2023-01-31T12:59:50;102347.56;;;11.00;69.65
54248;BME280;40161;39.768;2.722;2023-01-31T13:08:02;102392.94;;;11.45;70.48
54248;BME280;40161;39.768;2.722;2023-01-31T13:10:35;102390.84;;;11.41;70.74
54248;BME280;40161;39.768;2.722;2023-01-31T13:13:05;102352.00;;;11.22;71.40
54248;BME280;40161;39.768;2.722;2023-01-31T13:15:43;102383.69;;;11.49;71.65
54248;BME280;40161;39.768;2.722;2023-01-31T13:18:12;102373.22;;;11.43;71.15
54248;BME280;40161;39.768;2.722;2023-01-31T13:20:47;102381.13;;;11.44;71.23
54248;BME280;40161;39.768;2.722;2023-01-31T13:23:25;102383.09;;;11.44;71.31
54248;BME280;40161;39.768;2.722;2023-01-31T13:26:08;102342.31;;;11.16;70.91
54248;BME280;40161;39.768;2.722;2023-01-31T13:28:42;102338.44;;;11.17;70.21
54248;BME280;40161;39.768;2.722;2023-01-31T13:34:25;102364.38;;;11.37;71.47
54248;BME280;40161;39.768;2.722;2023-01-31T13:36:58;102337.59;;;11.25;72.12
54248;BME280;40161;39.768;2.722;2023-01-31T13:39:42;102354.97;;;11.38;72.14
54248;BME280;40161;39.768;2.722;2023-01-31T13:42:13;102287.78;;;10.97;71.63
54248;BME280;40161;39.768;2.722;2023-01-31T13:44:39;102348.38;;;11.30;71.82
54248;BME280;40161;39.768;2.722;2023-01-31T13:49:49;102335.97;;;11.24;70.71
54248;BME280;40161;39.768;2.722;2023-01-31T13:52:24;102356.91;;;11.37;71.39
54248;BME280;40161;39.768;2.722;2023-01-31T13:54:55;102349.31;;;11.34;71.17
54248;BME280;40161;39.768;2.722;2023-01-31T13:57:29;102335.78;;;11.29;71.68
54248;BME280;40161;39.768;2.722;2023-01-31T14:00:50;102350.28;;;11.38;71.78
54248;BME280;40161;39.768;2.722;2023-01-31T14:03:11;102312.91;;;11.16;72.09
54248;BME280;40161;39.768;2.722;2023-01-31T14:13:42;102315.13;;;11.23;70.62
54248;BME280;40161;39.768;2.722;2023-01-31T14:18:56;102307.53;;;11.20;71.99
54248;BME280;40161;39.768;2.722;2023-01-31T14:23:54;102342.16;;;11.42;71.77
54248;BME280;40161;39.768;2.722;2023-01-31T14:29:09;102318.78;;;11.36;71.87
54248;BME280;40161;39.768;2.722;2023-01-31T14:31:43;102351.03;;;11.48;70.98
54248;BME280;40161;39.768;2.722;2023-01-31T14:34:29;102345.88;;;11.46;71.43
54248;BME280;40161;39.768;2.722;2023-01-31T14:42:42;102344.59;;;11.44;70.41
54248;BME280;40161;39.768;2.722;2023-01-31T14:54:20;102311.94;;;11.12;71.67
54248;BME280;40161;39.768;2.722;2023-01-31T14:59:33;102341.47;;;11.24;72.28
54248;BME280;40161;39.768;2.722;2023-01-31T15:02:22;102344.84;;;11.30;71.54
54248;BME280;40161;39.768;2.722;2023-01-31T15:05:09;102358.44;;;11.26;72.22
54248;BME280;40161;39.768;2.722;2023-01-31T15:07:56;102353.25;;;11.25;71.33
54248;BME280;40161;39.768;2.722;2023-01-31T15:13:34;102348.09;;;11.23;71.70